sensor_id;sensor_type;location;lat;lon;timestamp;pressure;altitude;pressure_sealevel;temperature;humidity
10464;BME280;5279;42.048;24.638;2023-07-30T00:00:52;97183.28;;;21.86;54.84
10464;BME280;5279;42.048;24.638;2023-07-30T00:03:19;97175.50;;;21.77;54.96
10464;BME280;5279;42.048;24.638;2023-07-30T00:05:53;97186.28;;;21.77;53.16
10464;BME280;5279;42.048;24.638;2023-07-30T00:08:20;97178.78;;;21.79;54.33
10464;BME280;5279;42.048;24.638;2023-07-30T00:10:47;97190.03;;;21.76;54.72
10464;BME280;5279;42.048;24.638;2023-07-30T00:13:14;97181.22;;;21.69;54.94
10464;BME280;5279;42.048;24.638;2023-07-30T00:15:41;97177.44;;;21.70;54.00
10464;BME280;5279;42.048;24.638;2023-07-30T00:18:08;97184.44;;;21.78;54.51
10464;BME280;5279;42.048;24.638;2023-07-30T00:20:35;97183.91;;;21.69;55.22
10464;BME280;5279;42.048;24.638;2023-07-30T00:23:03;97178.97;;;21.66;54.73
10464;BME280;5279;42.048;24.638;2023-07-30T00:25:30;97186.28;;;21.59;54.72
10464;BME280;5279;42.048;24.638;2023-07-30T00:27:57;97186.75;;;21.56;55.33
10464;BME280;5279;42.048;24.638;2023-07-30T00:30:24;97181.22;;;21.51;54.86
10464;BME280;5279;42.048;24.638;2023-07-30T00:32:51;97202.16;;;21.49;55.68
10464;BME280;5279;42.048;24.638;2023-07-30T00:35:18;97188.81;;;21.36;55.59
10464;BME280;5279;42.048;24.638;2023-07-30T00:37:45;97183.19;;;21.38;56.50
10464;BME280;5279;42.048;24.638;2023-07-30T00:40:14;97187.75;;;21.37;56.84
10464;BME280;5279;42.048;24.638;2023-07-30T00:42:41;97178.94;;;21.30;57.06
10464;BME280;5279;42.048;24.638;2023-07-30T00:45:10;97177.34;;;21.22;57.93
10464;BME280;5279;42.048;24.638;2023-07-30T00:47:37;97179.94;;;21.11;58.48
10464;BME280;5279;42.048;24.638;2023-07-30T00:50:06;97182.88;;;21.03;59.72
10464;BME280;5279;42.048;24.638;2023-07-30T00:52:34;97182.59;;;20.86;59.28
10464;BME280;5279;42.048;24.638;2023-07-30T00:55:03;97183.09;;;20.77;58.22
10464;BME280;5279;42.048;24.638;2023-07-30T00:57:31;97175.72;;;20.65;59.07
10464;BME280;5279;42.048;24.638;2023-07-30T00:59:58;97179.75;;;20.81;57.80
10464;BME280;5279;42.048;24.638;2023-07-30T01:02:29;97178.88;;;20.87;58.75
10464;BME280;5279;42.048;24.638;2023-07-30T01:04:56;97179.34;;;20.78;59.59
10464;BME280;5279;42.048;24.638;2023-07-30T01:07:25;97186.44;;;20.72;59.98
10464;BME280;5279;42.048;24.638;2023-07-30T01:09:52;97176.91;;;20.76;59.60
10464;BME280;5279;42.048;24.638;2023-07-30T01:12:20;97182.66;;;20.80;59.35
10464;BME280;5279;42.048;24.638;2023-07-30T01:14:50;97178.31;;;20.79;60.23
10464;BME280;5279;42.048;24.638;2023-07-30T01:17:18;97182.66;;;20.80;59.76
10464;BME280;5279;42.048;24.638;2023-07-30T01:19:45;97178.09;;;20.80;58.92
10464;BME280;5279;42.048;24.638;2023-07-30T01:22:13;97180.13;;;20.85;59.92
10464;BME280;5279;42.048;24.638;2023-07-30T01:24:40;97168.44;;;20.73;60.82
10464;BME280;5279;42.048;24.638;2023-07-30T01:27:09;97167.38;;;20.73;61.40
10464;BME280;5279;42.048;24.638;2023-07-30T01:29:42;97172.75;;;20.73;62.08
10464;BME280;5279;42.048;24.638;2023-07-30T01:32:11;97172.00;;;20.66;60.68
10464;BME280;5279;42.048;24.638;2023-07-30T01:34:40;97173.03;;;20.65;60.90
10464;BME280;5279;42.048;24.638;2023-07-30T01:37:10;97180.31;;;20.58;60.42
10464;BME280;5279;42.048;24.638;2023-07-30T01:39:40;97187.34;;;20.59;60.45
10464;BME280;5279;42.048;24.638;2023-07-30T01:42:11;97188.63;;;20.57;61.35
10464;BME280;5279;42.048;24.638;2023-07-30T01:44:38;97183.25;;;20.57;61.93
10464;BME280;5279;42.048;24.638;2023-07-30T01:47:05;97176.66;;;20.46;61.27
10464;BME280;5279;42.048;24.638;2023-07-30T01:49:32;97187.34;;;20.59;59.86
10464;BME280;5279;42.048;24.638;2023-07-30T01:51:59;97199.34;;;20.63;60.12
10464;BME280;5279;42.048;24.638;2023-07-30T01:54:26;97193.09;;;20.69;60.58
10464;BME280;5279;42.048;24.638;2023-07-30T01:56:54;97186.06;;;20.68;61.83
10464;BME280;5279;42.048;24.638;2023-07-30T01:59:21;97195.34;;;20.73;60.39
10464;BME280;5279;42.048;24.638;2023-07-30T02:01:48;97182.56;;;20.61;59.77
10464;BME280;5279;42.048;24.638;2023-07-30T02:04:15;97185.31;;;20.55;60.04
10464;BME280;5279;42.048;24.638;2023-07-30T02:06:43;97189.88;;;20.54;60.17
10464;BME280;5279;42.048;24.638;2023-07-30T02:09:10;97192.38;;;20.49;60.34
10464;BME280;5279;42.048;24.638;2023-07-30T02:11:37;97191.63;;;20.42;61.13
10464;BME280;5279;42.048;24.638;2023-07-30T02:14:05;97187.91;;;20.37;59.47
10464;BME280;5279;42.048;24.638;2023-07-30T02:16:32;97184.63;;;20.35;60.36
10464;BME280;5279;42.048;24.638;2023-07-30T02:18:59;97181.72;;;20.36;60.55
10464;BME280;5279;42.048;24.638;2023-07-30T02:21:26;97192.06;;;20.39;60.50
10464;BME280;5279;42.048;24.638;2023-07-30T02:23:55;97175.50;;;20.36;61.38
10464;BME280;5279;42.048;24.638;2023-07-30T02:26:22;97187.88;;;20.43;62.04
10464;BME280;5279;42.048;24.638;2023-07-30T02:28:50;97189.38;;;20.39;62.35
10464;BME280;5279;42.048;24.638;2023-07-30T02:31:18;97194.31;;;20.42;61.48
10464;BME280;5279;42.048;24.638;2023-07-30T02:33:45;97193.78;;;20.27;62.76
10464;BME280;5279;42.048;24.638;2023-07-30T02:36:12;97188.25;;;20.09;61.89
10464;BME280;5279;42.048;24.638;2023-07-30T02:38:39;97195.81;;;20.25;61.28
10464;BME280;5279;42.048;24.638;2023-07-30T02:41:06;97195.91;;;20.12;62.04
10464;BME280;5279;42.048;24.638;2023-07-30T02:43:33;97208.28;;;20.13;63.34
10464;BME280;5279;42.048;24.638;2023-07-30T02:46:00;97210.81;;;20.08;63.29
10464;BME280;5279;42.048;24.638;2023-07-30T02:48:28;97213.31;;;20.03;63.04
10464;BME280;5279;42.048;24.638;2023-07-30T02:50:55;97210.41;;;19.98;63.85
10464;BME280;5279;42.048;24.638;2023-07-30T02:53:22;97212.09;;;19.92;65.76
10464;BME280;5279;42.048;24.638;2023-07-30T02:55:49;97200.09;;;19.95;64.07
10464;BME280;5279;42.048;24.638;2023-07-30T02:58:16;97213.31;;;20.03;63.69
10464;BME280;5279;42.048;24.638;2023-07-30T03:00:43;97218.69;;;20.03;65.21
10464;BME280;5279;42.048;24.638;2023-07-30T03:03:10;97225.16;;;19.89;67.53
10464;BME280;5279;42.048;24.638;2023-07-30T03:05:41;97227.22;;;19.93;66.91
10464;BME280;5279;42.048;24.638;2023-07-30T03:08:08;97229.09;;;19.86;69.24
10464;BME280;5279;42.048;24.638;2023-07-30T03:10:36;97230.31;;;19.90;67.64
10464;BME280;5279;42.048;24.638;2023-07-30T03:13:03;97228.69;;;19.83;68.23
10464;BME280;5279;42.048;24.638;2023-07-30T03:15:29;97228.50;;;19.84;69.09
10464;BME280;5279;42.048;24.638;2023-07-30T03:17:56;97243.19;;;19.82;70.35
10464;BME280;5279;42.048;24.638;2023-07-30T03:20:23;97234.69;;;19.85;68.41
10464;BME280;5279;42.048;24.638;2023-07-30T03:22:52;97235.06;;;19.88;70.90
10464;BME280;5279;42.048;24.638;2023-07-30T03:25:19;97231.59;;;19.88;69.13
10464;BME280;5279;42.048;24.638;2023-07-30T03:27:46;97227.84;;;19.89;69.93
10464;BME280;5279;42.048;24.638;2023-07-30T03:30:12;97230.94;;;19.86;67.86
10464;BME280;5279;42.048;24.638;2023-07-30T03:32:39;97236.31;;;19.86;66.59
10464;BME280;5279;42.048;24.638;2023-07-30T03:35:07;97228.25;;;19.86;68.36
10464;BME280;5279;42.048;24.638;2023-07-30T03:37:34;97222.00;;;19.98;70.65
10464;BME280;5279;42.048;24.638;2023-07-30T03:40:03;97225.72;;;20.04;68.49
10464;BME280;5279;42.048;24.638;2023-07-30T03:42:30;97232.16;;;20.03;65.71
10464;BME280;5279;42.048;24.638;2023-07-30T03:44:57;97234.84;;;20.03;67.34
10464;BME280;5279;42.048;24.638;2023-07-30T03:47:24;97227.78;;;20.02;65.16
10464;BME280;5279;42.048;24.638;2023-07-30T03:49:50;97227.78;;;20.08;64.69
10464;BME280;5279;42.048;24.638;2023-07-30T03:52:17;97218.28;;;20.06;66.13
10464;BME280;5279;42.048;24.638;2023-07-30T03:54:44;97239.72;;;20.19;64.56
10464;BME280;5279;42.048;24.638;2023-07-30T03:57:13;97242.22;;;20.21;64.67
10464;BME280;5279;42.048;24.638;2023-07-30T03:59:39;97236.84;;;20.27;65.29
10464;BME280;5279;42.048;24.638;2023-07-30T04:02:06;97247.88;;;20.50;64.82
10464;BME280;5279;42.048;24.638;2023-07-30T04:04:33;97246.16;;;20.62;63.56
10464;BME280;5279;42.048;24.638;2023-07-30T04:07:00;97249.97;;;20.80;63.06
10464;BME280;5279;42.048;24.638;2023-07-30T04:09:27;97257.00;;;20.81;62.17
10464;BME280;5279;42.048;24.638;2023-07-30T04:11:54;97252.59;;;20.93;61.66
10464;BME280;5279;42.048;24.638;2023-07-30T04:14:22;97255.00;;;21.01;62.51
10464;BME280;5279;42.048;24.638;2023-07-30T04:16:49;97257.25;;;21.10;62.78
10464;BME280;5279;42.048;24.638;2023-07-30T04:19:16;97252.84;;;21.16;60.96
10464;BME280;5279;42.048;24.638;2023-07-30T04:21:43;97251.09;;;21.28;61.06
10464;BME280;5279;42.048;24.638;2023-07-30T04:24:10;97261.75;;;21.41;61.26
10464;BME280;5279;42.048;24.638;2023-07-30T04:26:37;97263.28;;;21.55;60.36
10464;BME280;5279;42.048;24.638;2023-07-30T04:29:04;97254.91;;;21.63;59.80
10464;BME280;5279;42.048;24.638;2023-07-30T04:31:32;97258.09;;;21.78;59.25
10464;BME280;5279;42.048;24.638;2023-07-30T04:33:59;97259.63;;;21.93;57.48
10464;BME280;5279;42.048;24.638;2023-07-30T04:36:27;97261.47;;;22.10;58.27
10464;BME280;5279;42.048;24.638;2023-07-30T04:38:54;97256.75;;;22.24;56.85
10464;BME280;5279;42.048;24.638;2023-07-30T04:41:21;97260.94;;;22.38;56.98
10464;BME280;5279;42.048;24.638;2023-07-30T04:43:48;97261.34;;;22.53;57.24
10464;BME280;5279;42.048;24.638;2023-07-30T04:46:15;97258.88;;;22.70;55.67
10464;BME280;5279;42.048;24.638;2023-07-30T04:48:43;97258.84;;;22.88;55.87
10464;BME280;5279;42.048;24.638;2023-07-30T04:51:10;97256.06;;;23.06;55.78
10464;BME280;5279;42.048;24.638;2023-07-30T04:53:37;97249.97;;;23.22;56.04
10464;BME280;5279;42.048;24.638;2023-07-30T04:56:04;97243.97;;;23.32;55.56
10464;BME280;5279;42.048;24.638;2023-07-30T04:58:30;97254.13;;;23.60;58.15
10464;BME280;5279;42.048;24.638;2023-07-30T05:00:57;97252.38;;;23.77;56.88
10464;BME280;5279;42.048;24.638;2023-07-30T05:03:24;97258.84;;;23.87;57.54
10464;BME280;5279;42.048;24.638;2023-07-30T05:05:53;97250.00;;;24.04;56.78
10464;BME280;5279;42.048;24.638;2023-07-30T05:08:20;97256.00;;;24.17;57.10
10464;BME280;5279;42.048;24.638;2023-07-30T05:10:47;97256.06;;;24.34;61.17
10464;BME280;5279;42.048;24.638;2023-07-30T05:13:14;97247.00;;;24.40;61.69
10464;BME280;5279;42.048;24.638;2023-07-30T05:15:40;97247.78;;;24.52;62.89
10464;BME280;5279;42.048;24.638;2023-07-30T05:18:07;97253.75;;;24.54;62.12
10464;BME280;5279;42.048;24.638;2023-07-30T05:20:34;97251.34;;;24.69;60.45
10464;BME280;5279;42.048;24.638;2023-07-30T05:23:02;97249.13;;;24.66;55.14
10464;BME280;5279;42.048;24.638;2023-07-30T05:25:29;97265.72;;;24.70;53.24
10464;BME280;5279;42.048;24.638;2023-07-30T05:27:56;97258.63;;;24.80;51.80
10464;BME280;5279;42.048;24.638;2023-07-30T05:30:23;97258.16;;;24.83;51.47
10464;BME280;5279;42.048;24.638;2023-07-30T05:32:50;97262.13;;;24.92;51.64
10464;BME280;5279;42.048;24.638;2023-07-30T05:35:17;97256.22;;;24.95;52.06
10464;BME280;5279;42.048;24.638;2023-07-30T05:37:45;97262.13;;;25.09;51.08
10464;BME280;5279;42.048;24.638;2023-07-30T05:40:13;97263.16;;;25.20;50.98
10464;BME280;5279;42.048;24.638;2023-07-30T05:42:40;97262.66;;;25.23;50.75
10464;BME280;5279;42.048;24.638;2023-07-30T05:45:08;97262.16;;;25.26;50.40
10464;BME280;5279;42.048;24.638;2023-07-30T05:47:35;97255.16;;;25.30;50.74
10464;BME280;5279;42.048;24.638;2023-07-30T05:50:02;97262.31;;;25.36;51.75
10464;BME280;5279;42.048;24.638;2023-07-30T05:52:29;97261.19;;;25.32;51.99
10464;BME280;5279;42.048;24.638;2023-07-30T05:54:56;97263.47;;;25.40;52.21
10464;BME280;5279;42.048;24.638;2023-07-30T05:57:25;97272.88;;;25.49;53.15
10464;BME280;5279;42.048;24.638;2023-07-30T05:59:52;97268.34;;;25.54;52.29
10464;BME280;5279;42.048;24.638;2023-07-30T06:02:19;97267.13;;;25.62;51.59
10464;BME280;5279;42.048;24.638;2023-07-30T06:04:46;97273.19;;;25.86;50.27
10464;BME280;5279;42.048;24.638;2023-07-30T06:07:14;97262.72;;;25.94;49.86
10464;BME280;5279;42.048;24.638;2023-07-30T06:09:41;97280.66;;;25.95;50.71
10464;BME280;5279;42.048;24.638;2023-07-30T06:12:08;97265.06;;;26.07;49.37
10464;BME280;5279;42.048;24.638;2023-07-30T06:14:36;97265.50;;;26.16;50.45
10464;BME280;5279;42.048;24.638;2023-07-30T06:17:03;97271.94;;;26.32;49.38
10464;BME280;5279;42.048;24.638;2023-07-30T06:19:30;97269.72;;;26.50;49.04
10464;BME280;5279;42.048;24.638;2023-07-30T06:21:57;97259.06;;;26.44;48.22
10464;BME280;5279;42.048;24.638;2023-07-30T06:24:24;97268.41;;;26.53;48.33
10464;BME280;5279;42.048;24.638;2023-07-30T06:26:51;97269.22;;;26.53;47.43
10464;BME280;5279;42.048;24.638;2023-07-30T06:29:18;97262.97;;;26.53;46.81
10464;BME280;5279;42.048;24.638;2023-07-30T06:31:46;97256.81;;;26.63;46.43
10464;BME280;5279;42.048;24.638;2023-07-30T06:34:14;97262.28;;;26.63;45.87
10464;BME280;5279;42.048;24.638;2023-07-30T06:36:41;97261.59;;;26.77;46.58
10464;BME280;5279;42.048;24.638;2023-07-30T06:39:08;97260.25;;;27.01;46.32
10464;BME280;5279;42.048;24.638;2023-07-30T06:41:34;97253.28;;;27.10;46.17
10464;BME280;5279;42.048;24.638;2023-07-30T06:44:01;97260.00;;;27.35;45.23
10464;BME280;5279;42.048;24.638;2023-07-30T06:46:28;97250.56;;;27.42;44.94
10464;BME280;5279;42.048;24.638;2023-07-30T06:48:57;97247.97;;;27.57;44.38
10464;BME280;5279;42.048;24.638;2023-07-30T06:51:24;97241.72;;;27.57;44.24
10464;BME280;5279;42.048;24.638;2023-07-30T06:53:52;97248.34;;;27.71;43.39
10464;BME280;5279;42.048;24.638;2023-07-30T06:56:19;97248.66;;;27.75;43.22
10464;BME280;5279;42.048;24.638;2023-07-30T06:58:46;97234.22;;;27.74;43.53
10464;BME280;5279;42.048;24.638;2023-07-30T07:01:13;97232.66;;;27.88;43.23
10464;BME280;5279;42.048;24.638;2023-07-30T07:03:40;97224.06;;;28.06;43.28
10464;BME280;5279;42.048;24.638;2023-07-30T07:06:08;97229.56;;;28.16;43.68
10464;BME280;5279;42.048;24.638;2023-07-30T07:08:35;97224.19;;;28.32;42.73
10464;BME280;5279;42.048;24.638;2023-07-30T07:11:02;97221.53;;;28.52;41.96
10464;BME280;5279;42.048;24.638;2023-07-30T07:13:29;97230.88;;;28.71;42.62
10464;BME280;5279;42.048;24.638;2023-07-30T07:15:56;97229.28;;;28.80;42.50
10464;BME280;5279;42.048;24.638;2023-07-30T07:18:23;97228.47;;;28.90;40.84
10464;BME280;5279;42.048;24.638;2023-07-30T07:20:50;97228.75;;;29.03;40.87
10464;BME280;5279;42.048;24.638;2023-07-30T07:23:18;97221.66;;;29.12;39.51
10464;BME280;5279;42.048;24.638;2023-07-30T07:25:45;97222.78;;;29.16;40.38
10464;BME280;5279;42.048;24.638;2023-07-30T07:28:12;97227.72;;;29.30;39.95
10464;BME280;5279;42.048;24.638;2023-07-30T07:30:39;97226.06;;;29.49;40.16
10464;BME280;5279;42.048;24.638;2023-07-30T07:33:06;97223.88;;;29.61;38.79
10464;BME280;5279;42.048;24.638;2023-07-30T07:35:37;97226.06;;;29.79;38.78
10464;BME280;5279;42.048;24.638;2023-07-30T07:38:03;97221.13;;;29.81;39.02
10464;BME280;5279;42.048;24.638;2023-07-30T07:40:36;97230.41;;;29.95;37.80
10464;BME280;5279;42.048;24.638;2023-07-30T07:43:05;97235.84;;;30.15;38.25
10464;BME280;5279;42.048;24.638;2023-07-30T07:45:31;97215.56;;;30.26;37.91
10464;BME280;5279;42.048;24.638;2023-07-30T07:47:58;97221.56;;;30.33;37.37
10464;BME280;5279;42.048;24.638;2023-07-30T07:50:25;97219.88;;;30.38;36.89
10464;BME280;5279;42.048;24.638;2023-07-30T07:52:52;97217.63;;;30.60;37.03
10464;BME280;5279;42.048;24.638;2023-07-30T07:55:19;97220.88;;;30.67;36.73
10464;BME280;5279;42.048;24.638;2023-07-30T07:57:47;97217.31;;;30.61;37.16
10464;BME280;5279;42.048;24.638;2023-07-30T08:00:14;97219.22;;;30.66;35.95
10464;BME280;5279;42.048;24.638;2023-07-30T08:02:41;97218.59;;;30.79;35.91
10464;BME280;5279;42.048;24.638;2023-07-30T08:05:08;97210.63;;;30.87;35.44
10464;BME280;5279;42.048;24.638;2023-07-30T08:07:35;97216.59;;;30.95;35.52
10464;BME280;5279;42.048;24.638;2023-07-30T08:10:03;97209.59;;;31.17;35.62
10464;BME280;5279;42.048;24.638;2023-07-30T08:12:31;97211.00;;;31.15;33.61
10464;BME280;5279;42.048;24.638;2023-07-30T08:14:59;97207.00;;;31.36;35.33
10464;BME280;5279;42.048;24.638;2023-07-30T08:17:26;97201.34;;;31.22;34.18
10464;BME280;5279;42.048;24.638;2023-07-30T08:19:53;97198.84;;;31.26;34.56
10464;BME280;5279;42.048;24.638;2023-07-30T08:22:20;97204.44;;;31.45;34.22
10464;BME280;5279;42.048;24.638;2023-07-30T08:24:47;97199.97;;;31.59;34.53
10464;BME280;5279;42.048;24.638;2023-07-30T08:27:14;97197.19;;;31.64;34.11
10464;BME280;5279;42.048;24.638;2023-07-30T08:29:41;97188.56;;;31.75;32.92
10464;BME280;5279;42.048;24.638;2023-07-30T08:32:09;97184.34;;;31.88;34.02
10464;BME280;5279;42.048;24.638;2023-07-30T08:34:38;97191.63;;;31.98;32.68
10464;BME280;5279;42.048;24.638;2023-07-30T08:37:05;97175.78;;;32.18;32.56
10464;BME280;5279;42.048;24.638;2023-07-30T08:39:32;97176.28;;;32.20;32.96
10464;BME280;5279;42.048;24.638;2023-07-30T08:41:59;97177.22;;;32.34;31.56
10464;BME280;5279;42.048;24.638;2023-07-30T08:44:26;97162.19;;;32.51;32.81
10464;BME280;5279;42.048;24.638;2023-07-30T08:46:52;97167.25;;;32.62;31.17
10464;BME280;5279;42.048;24.638;2023-07-30T08:49:21;97157.25;;;32.71;31.69
10464;BME280;5279;42.048;24.638;2023-07-30T08:51:52;97156.00;;;32.82;31.98
10464;BME280;5279;42.048;24.638;2023-07-30T08:54:20;97151.59;;;33.00;30.54
10464;BME280;5279;42.048;24.638;2023-07-30T08:56:47;97149.44;;;32.97;31.79
10464;BME280;5279;42.048;24.638;2023-07-30T08:59:15;97147.31;;;33.13;30.78
10464;BME280;5279;42.048;24.638;2023-07-30T09:01:44;97145.44;;;33.08;31.32
10464;BME280;5279;42.048;24.638;2023-07-30T09:04:11;97142.31;;;33.15;30.38
10464;BME280;5279;42.048;24.638;2023-07-30T09:06:40;97142.22;;;33.20;32.42
10464;BME280;5279;42.048;24.638;2023-07-30T09:09:07;97131.56;;;33.18;30.51
10464;BME280;5279;42.048;24.638;2023-07-30T09:11:36;97133.53;;;33.31;31.27
10464;BME280;5279;42.048;24.638;2023-07-30T09:14:03;97125.88;;;33.61;31.67
10464;BME280;5279;42.048;24.638;2023-07-30T09:16:30;97127.72;;;33.65;30.50
10464;BME280;5279;42.048;24.638;2023-07-30T09:18:57;97122.78;;;33.48;30.81
10464;BME280;5279;42.048;24.638;2023-07-30T09:21:30;97125.88;;;33.61;30.43
10464;BME280;5279;42.048;24.638;2023-07-30T09:24:01;97112.84;;;33.80;30.95
10464;BME280;5279;42.048;24.638;2023-07-30T09:26:39;97120.19;;;33.98;31.09
10464;BME280;5279;42.048;24.638;2023-07-30T09:29:07;97117.16;;;34.13;30.90
10464;BME280;5279;42.048;24.638;2023-07-30T09:31:45;97107.34;;;34.07;29.98
10464;BME280;5279;42.048;24.638;2023-07-30T09:34:15;97111.41;;;34.23;31.04
10464;BME280;5279;42.048;24.638;2023-07-30T09:36:44;97099.56;;;34.36;29.98
10464;BME280;5279;42.048;24.638;2023-07-30T09:39:18;97095.47;;;34.47;29.28
10464;BME280;5279;42.048;24.638;2023-07-30T09:41:45;97102.09;;;34.46;29.92
10464;BME280;5279;42.048;24.638;2023-07-30T09:44:13;97092.00;;;34.55;29.73
10464;BME280;5279;42.048;24.638;2023-07-30T09:46:46;97095.22;;;34.57;29.95
10464;BME280;5279;42.048;24.638;2023-07-30T09:49:13;97085.88;;;34.81;29.38
10464;BME280;5279;42.048;24.638;2023-07-30T09:51:41;97083.47;;;35.01;28.60
10464;BME280;5279;42.048;24.638;2023-07-30T09:54:11;97076.28;;;34.92;28.64
10464;BME280;5279;42.048;24.638;2023-07-30T09:56:41;97074.56;;;34.82;29.30
10464;BME280;5279;42.048;24.638;2023-07-30T09:59:09;97074.75;;;35.08;28.38
10464;BME280;5279;42.048;24.638;2023-07-30T10:01:38;97072.63;;;35.05;28.68
10464;BME280;5279;42.048;24.638;2023-07-30T10:04:08;97066.59;;;35.17;29.16
10464;BME280;5279;42.048;24.638;2023-07-30T10:06:39;97077.72;;;35.42;27.94
10464;BME280;5279;42.048;24.638;2023-07-30T10:09:08;97058.94;;;35.44;26.71
10464;BME280;5279;42.048;24.638;2023-07-30T10:11:41;97047.38;;;35.64;27.85
10464;BME280;5279;42.048;24.638;2023-07-30T10:14:09;97055.00;;;35.68;27.89
10464;BME280;5279;42.048;24.638;2023-07-30T10:16:36;97049.34;;;35.73;27.70
10464;BME280;5279;42.048;24.638;2023-07-30T10:19:03;97047.22;;;35.70;28.51
10464;BME280;5279;42.048;24.638;2023-07-30T10:21:32;97042.25;;;35.89;28.10
10464;BME280;5279;42.048;24.638;2023-07-30T10:24:00;97042.75;;;35.99;26.97
10464;BME280;5279;42.048;24.638;2023-07-30T10:26:28;97034.53;;;36.08;26.98
10464;BME280;5279;42.048;24.638;2023-07-30T10:29:13;97034.16;;;36.01;27.61
10464;BME280;5279;42.048;24.638;2023-07-30T10:31:41;97038.38;;;35.90;26.66
10464;BME280;5279;42.048;24.638;2023-07-30T10:34:09;97028.53;;;36.06;27.25
10464;BME280;5279;42.048;24.638;2023-07-30T10:36:43;97026.56;;;36.15;27.08
10464;BME280;5279;42.048;24.638;2023-07-30T10:39:13;97029.66;;;36.05;26.97
10464;BME280;5279;42.048;24.638;2023-07-30T10:41:40;97021.88;;;36.24;27.37
10464;BME280;5279;42.048;24.638;2023-07-30T10:44:07;97014.41;;;36.33;26.39
10464;BME280;5279;42.048;24.638;2023-07-30T10:46:45;97022.03;;;36.36;27.57
10464;BME280;5279;42.048;24.638;2023-07-30T10:49:12;97020.91;;;36.37;26.16
10464;BME280;5279;42.048;24.638;2023-07-30T10:51:39;97008.28;;;36.53;26.79
10464;BME280;5279;42.048;24.638;2023-07-30T10:54:06;97010.88;;;36.58;26.26
10464;BME280;5279;42.048;24.638;2023-07-30T10:56:35;97016.56;;;36.62;26.85
10464;BME280;5279;42.048;24.638;2023-07-30T10:59:03;97015.72;;;36.79;26.68
10464;BME280;5279;42.048;24.638;2023-07-30T11:01:30;97013.47;;;36.63;26.34
10464;BME280;5279;42.048;24.638;2023-07-30T11:03:58;97011.69;;;36.59;26.28
10464;BME280;5279;42.048;24.638;2023-07-30T11:06:26;97014.75;;;36.75;26.67
10464;BME280;5279;42.048;24.638;2023-07-30T11:08:53;96997.22;;;36.70;26.44
10464;BME280;5279;42.048;24.638;2023-07-30T11:11:20;97007.28;;;36.84;26.96
10464;BME280;5279;42.048;24.638;2023-07-30T11:13:49;96992.31;;;36.85;25.25
10464;BME280;5279;42.048;24.638;2023-07-30T11:16:16;96993.13;;;37.02;25.61
10464;BME280;5279;42.048;24.638;2023-07-30T11:18:44;96990.03;;;37.04;25.17
10464;BME280;5279;42.048;24.638;2023-07-30T11:21:14;96989.41;;;36.98;25.32
10464;BME280;5279;42.048;24.638;2023-07-30T11:23:43;96989.06;;;36.83;24.41
10464;BME280;5279;42.048;24.638;2023-07-30T11:26:14;96990.34;;;36.94;24.49
10464;BME280;5279;42.048;24.638;2023-07-30T11:28:42;96992.44;;;36.97;25.39
10464;BME280;5279;42.048;24.638;2023-07-30T11:31:10;96977.66;;;37.10;25.59
10464;BME280;5279;42.048;24.638;2023-07-30T11:33:40;96966.28;;;37.03;24.83
10464;BME280;5279;42.048;24.638;2023-07-30T11:36:08;96976.31;;;37.16;24.41
10464;BME280;5279;42.048;24.638;2023-07-30T11:38:38;96973.91;;;37.06;24.32
10464;BME280;5279;42.048;24.638;2023-07-30T11:41:06;96965.09;;;37.21;23.80
10464;BME280;5279;42.048;24.638;2023-07-30T11:43:36;96963.41;;;37.37;24.25
10464;BME280;5279;42.048;24.638;2023-07-30T11:46:11;96950.44;;;37.29;23.88
10464;BME280;5279;42.048;24.638;2023-07-30T11:48:39;96961.94;;;37.48;24.05
10464;BME280;5279;42.048;24.638;2023-07-30T11:51:06;96954.19;;;37.62;22.96
10464;BME280;5279;42.048;24.638;2023-07-30T11:53:48;96952.75;;;37.56;23.36
10464;BME280;5279;42.048;24.638;2023-07-30T11:56:17;96947.91;;;37.53;23.08
10464;BME280;5279;42.048;24.638;2023-07-30T11:58:44;96939.81;;;37.48;22.02
10464;BME280;5279;42.048;24.638;2023-07-30T12:01:12;96939.41;;;37.58;22.62
10464;BME280;5279;42.048;24.638;2023-07-30T12:03:39;96927.16;;;37.68;22.95
10464;BME280;5279;42.048;24.638;2023-07-30T12:06:07;96917.72;;;37.69;22.42
10464;BME280;5279;42.048;24.638;2023-07-30T12:08:34;96925.00;;;37.73;23.30
10464;BME280;5279;42.048;24.638;2023-07-30T12:11:08;96915.28;;;37.67;22.23
10464;BME280;5279;42.048;24.638;2023-07-30T12:13:42;96908.81;;;37.63;22.89
10464;BME280;5279;42.048;24.638;2023-07-30T12:16:11;96909.59;;;37.64;23.12
10464;BME280;5279;42.048;24.638;2023-07-30T12:18:38;96903.88;;;37.69;22.64
10464;BME280;5279;42.048;24.638;2023-07-30T12:21:06;96905.16;;;37.71;23.30
10464;BME280;5279;42.048;24.638;2023-07-30T12:23:33;96896.44;;;37.61;21.50
10464;BME280;5279;42.048;24.638;2023-07-30T12:26:01;96901.94;;;37.69;20.90
10464;BME280;5279;42.048;24.638;2023-07-30T12:28:31;96887.91;;;37.74;21.91
10464;BME280;5279;42.048;24.638;2023-07-30T12:30:58;96901.13;;;37.69;21.08
10464;BME280;5279;42.048;24.638;2023-07-30T12:33:25;96887.97;;;37.66;21.31
10464;BME280;5279;42.048;24.638;2023-07-30T12:35:52;96887.06;;;37.53;22.13
10464;BME280;5279;42.048;24.638;2023-07-30T12:38:19;96877.34;;;37.47;22.25
10464;BME280;5279;42.048;24.638;2023-07-30T12:40:46;96887.63;;;37.67;22.62
10464;BME280;5279;42.048;24.638;2023-07-30T12:43:13;96886.13;;;37.70;21.93
10464;BME280;5279;42.048;24.638;2023-07-30T12:45:41;96880.06;;;37.76;21.77
10464;BME280;5279;42.048;24.638;2023-07-30T12:48:08;96884.66;;;37.72;22.00
10464;BME280;5279;42.048;24.638;2023-07-30T12:50:35;96885.44;;;37.73;21.05
10464;BME280;5279;42.048;24.638;2023-07-30T12:53:02;96871.81;;;37.89;21.83
10464;BME280;5279;42.048;24.638;2023-07-30T12:55:29;96870.56;;;37.65;21.76
10464;BME280;5279;42.048;24.638;2023-07-30T12:57:56;96869.22;;;37.71;21.91
10464;BME280;5279;42.048;24.638;2023-07-30T13:00:24;96872.25;;;37.79;21.73
10464;BME280;5279;42.048;24.638;2023-07-30T13:02:52;96867.78;;;37.65;22.17